sensor_id;sensor_type;location;lat;lon;timestamp;temperature;humidity
16198;DHT22;8206;51.440;6.914;2023-10-31T00:00:33;12.30;99.90
16198;DHT22;8206;51.440;6.914;2023-10-31T00:03:00;12.10;99.90
16198;DHT22;8206;51.440;6.914;2023-10-31T00:05:27;12.00;99.90
16198;DHT22;8206;51.440;6.914;2023-10-31T00:07:53;11.90;99.90
16198;DHT22;8206;51.440;6.914;2023-10-31T00:10:21;11.70;99.90
16198;DHT22;8206;51.440;6.914;2023-10-31T00:12:48;11.60;99.90
16198;DHT22;8206;51.440;6.914;2023-10-31T00:15:15;11.60;99.90
16198;DHT22;8206;51.440;6.914;2023-10-31T00:17:41;11.50;99.90
16198;DHT22;8206;51.440;6.914;2023-10-31T00:20:08;11.40;99.90
16198;DHT22;8206;51.440;6.914;2023-10-31T00:22:35;11.40;99.90
16198;DHT22;8206;51.440;6.914;2023-10-31T00:25:02;11.30;99.90
16198;DHT22;8206;51.440;6.914;2023-10-31T00:27:30;11.20;99.90
16198;DHT22;8206;51.440;6.914;2023-10-31T00:29:57;11.20;99.90
16198;DHT22;8206;51.440;6.914;2023-10-31T00:32:24;11.20;99.90
16198;DHT22;8206;51.440;6.914;2023-10-31T00:34:51;11.10;99.90
16198;DHT22;8206;51.440;6.914;2023-10-31T00:37:17;11.10;99.90
16198;DHT22;8206;51.440;6.914;2023-10-31T00:39:44;11.10;99.90
16198;DHT22;8206;51.440;6.914;2023-10-31T00:42:11;11.10;99.90
16198;DHT22;8206;51.440;6.914;2023-10-31T00:44:39;11.10;99.90
16198;DHT22;8206;51.440;6.914;2023-10-31T00:47:06;11.00;99.90
16198;DHT22;8206;51.440;6.914;2023-10-31T00:49:32;11.00;99.90
16198;DHT22;8206;51.440;6.914;2023-10-31T00:51:59;11.00;99.90
16198;DHT22;8206;51.440;6.914;2023-10-31T00:54:25;11.00;99.90
16198;DHT22;8206;51.440;6.914;2023-10-31T00:56:52;10.90;99.90
16198;DHT22;8206;51.440;6.914;2023-10-31T00:59:19;10.90;99.90
16198;DHT22;8206;51.440;6.914;2023-10-31T01:01:47;10.90;99.90
16198;DHT22;8206;51.440;6.914;2023-10-31T01:04:13;10.90;99.90
16198;DHT22;8206;51.440;6.914;2023-10-31T01:06:41;10.80;99.90
16198;DHT22;8206;51.440;6.914;2023-10-31T01:09:08;10.80;99.90
16198;DHT22;8206;51.440;6.914;2023-10-31T01:11:34;10.70;99.90
16198;DHT22;8206;51.440;6.914;2023-10-31T01:14:01;10.70;99.90
16198;DHT22;8206;51.440;6.914;2023-10-31T01:16:28;10.70;99.90
16198;DHT22;8206;51.440;6.914;2023-10-31T01:18:56;10.70;99.90
16198;DHT22;8206;51.440;6.914;2023-10-31T01:21:22;10.70;99.90
16198;DHT22;8206;51.440;6.914;2023-10-31T01:23:49;10.60;99.90
16198;DHT22;8206;51.440;6.914;2023-10-31T01:26:16;10.60;99.90
16198;DHT22;8206;51.440;6.914;2023-10-31T01:28:42;10.70;99.90
16198;DHT22;8206;51.440;6.914;2023-10-31T01:31:09;10.70;99.90
16198;DHT22;8206;51.440;6.914;2023-10-31T01:33:36;10.70;99.90
16198;DHT22;8206;51.440;6.914;2023-10-31T01:36:04;10.70;99.90
16198;DHT22;8206;51.440;6.914;2023-10-31T01:38:31;10.70;99.90
16198;DHT22;8206;51.440;6.914;2023-10-31T01:40:58;10.70;99.90
16198;DHT22;8206;51.440;6.914;2023-10-31T01:43:31;10.70;99.90
16198;DHT22;8206;51.440;6.914;2023-10-31T01:45:58;10.70;99.90
16198;DHT22;8206;51.440;6.914;2023-10-31T01:48:27;10.70;99.90
16198;DHT22;8206;51.440;6.914;2023-10-31T01:50:54;10.70;99.90
16198;DHT22;8206;51.440;6.914;2023-10-31T01:53:24;10.70;99.90
16198;DHT22;8206;51.440;6.914;2023-10-31T01:55:52;10.70;99.90
16198;DHT22;8206;51.440;6.914;2023-10-31T01:58:25;10.70;99.90
16198;DHT22;8206;51.440;6.914;2023-10-31T02:00:52;10.70;99.90
16198;DHT22;8206;51.440;6.914;2023-10-31T02:03:19;10.70;99.90
16198;DHT22;8206;51.440;6.914;2023-10-31T02:05:46;10.60;99.90
16198;DHT22;8206;51.440;6.914;2023-10-31T02:08:12;10.70;99.90
16198;DHT22;8206;51.440;6.914;2023-10-31T02:10:40;10.70;99.90
16198;DHT22;8206;51.440;6.914;2023-10-31T02:13:11;10.70;99.90
16198;DHT22;8206;51.440;6.914;2023-10-31T02:15:38;10.70;99.90
16198;DHT22;8206;51.440;6.914;2023-10-31T02:18:04;10.70;99.90
16198;DHT22;8206;51.440;6.914;2023-10-31T02:20:31;10.70;99.90
16198;DHT22;8206;51.440;6.914;2023-10-31T02:22:59;10.70;99.90
16198;DHT22;8206;51.440;6.914;2023-10-31T02:25:26;10.70;99.90
16198;DHT22;8206;51.440;6.914;2023-10-31T02:27:53;10.70;99.90
16198;DHT22;8206;51.440;6.914;2023-10-31T02:30:20;10.70;99.90
16198;DHT22;8206;51.440;6.914;2023-10-31T02:32:46;10.60;99.90
16198;DHT22;8206;51.440;6.914;2023-10-31T02:35:15;10.60;99.90
16198;DHT22;8206;51.440;6.914;2023-10-31T02:37:42;10.60;99.90
16198;DHT22;8206;51.440;6.914;2023-10-31T02:40:11;10.50;99.90
16198;DHT22;8206;51.440;6.914;2023-10-31T02:42:37;10.60;99.90
16198;DHT22;8206;51.440;6.914;2023-10-31T02:45:05;10.50;99.90
16198;DHT22;8206;51.440;6.914;2023-10-31T02:47:32;10.50;99.90
16198;DHT22;8206;51.440;6.914;2023-10-31T02:49:59;10.60;99.90
16198;DHT22;8206;51.440;6.914;2023-10-31T02:52:25;10.60;99.90
16198;DHT22;8206;51.440;6.914;2023-10-31T02:54:52;10.60;99.90
16198;DHT22;8206;51.440;6.914;2023-10-31T02:57:20;10.60;99.90
16198;DHT22;8206;51.440;6.914;2023-10-31T02:59:47;10.60;99.90
16198;DHT22;8206;51.440;6.914;2023-10-31T03:02:14;10.60;99.90
16198;DHT22;8206;51.440;6.914;2023-10-31T03:04:41;10.60;99.90
16198;DHT22;8206;51.440;6.914;2023-10-31T03:07:07;10.60;99.90
16198;DHT22;8206;51.440;6.914;2023-10-31T03:09:34;10.70;99.90
16198;DHT22;8206;51.440;6.914;2023-10-31T03:12:01;10.70;99.90
16198;DHT22;8206;51.440;6.914;2023-10-31T03:14:29;10.70;99.90
16198;DHT22;8206;51.440;6.914;2023-10-31T03:16:55;10.60;99.90
16198;DHT22;8206;51.440;6.914;2023-10-31T03:19:22;10.60;99.90
16198;DHT22;8206;51.440;6.914;2023-10-31T03:21:49;10.60;99.90
16198;DHT22;8206;51.440;6.914;2023-10-31T03:24:15;10.60;99.90
16198;DHT22;8206;51.440;6.914;2023-10-31T03:26:42;10.70;99.90
16198;DHT22;8206;51.440;6.914;2023-10-31T03:29:09;10.60;99.90
16198;DHT22;8206;51.440;6.914;2023-10-31T03:31:37;10.60;99.90
16198;DHT22;8206;51.440;6.914;2023-10-31T03:34:04;10.60;99.90
16198;DHT22;8206;51.440;6.914;2023-10-31T03:36:30;10.60;99.90
16198;DHT22;8206;51.440;6.914;2023-10-31T03:38:57;10.60;99.90
16198;DHT22;8206;51.440;6.914;2023-10-31T03:41:24;10.60;99.90
16198;DHT22;8206;51.440;6.914;2023-10-31T03:43:51;10.60;99.90
16198;DHT22;8206;51.440;6.914;2023-10-31T03:46:17;10.60;99.90
16198;DHT22;8206;51.440;6.914;2023-10-31T03:48:45;10.60;99.90
16198;DHT22;8206;51.440;6.914;2023-10-31T03:51:12;10.60;99.90
16198;DHT22;8206;51.440;6.914;2023-10-31T03:53:39;10.60;99.90
16198;DHT22;8206;51.440;6.914;2023-10-31T03:56:05;10.50;99.90
16198;DHT22;8206;51.440;6.914;2023-10-31T03:58:32;10.60;99.90
16198;DHT22;8206;51.440;6.914;2023-10-31T04:00:59;10.60;99.90
16198;DHT22;8206;51.440;6.914;2023-10-31T04:03:26;10.50;99.90
16198;DHT22;8206;51.440;6.914;2023-10-31T04:05:54;10.50;99.90
16198;DHT22;8206;51.440;6.914;2023-10-31T04:08:20;10.50;99.90
16198;DHT22;8206;51.440;6.914;2023-10-31T04:10:47;10.60;99.90
16198;DHT22;8206;51.440;6.914;2023-10-31T04:13:14;10.60;99.90
16198;DHT22;8206;51.440;6.914;2023-10-31T04:15:40;10.60;99.90
16198;DHT22;8206;51.440;6.914;2023-10-31T04:18:07;10.60;99.90
16198;DHT22;8206;51.440;6.914;2023-10-31T04:20:34;10.60;99.90
16198;DHT22;8206;51.440;6.914;2023-10-31T04:23:02;10.60;99.90
16198;DHT22;8206;51.440;6.914;2023-10-31T04:25:28;10.60;99.90
16198;DHT22;8206;51.440;6.914;2023-10-31T04:27:55;10.60;99.90
16198;DHT22;8206;51.440;6.914;2023-10-31T04:30:23;10.50;99.90
16198;DHT22;8206;51.440;6.914;2023-10-31T04:32:50;10.50;99.90
16198;DHT22;8206;51.440;6.914;2023-10-31T04:35:16;10.50;99.90
16198;DHT22;8206;51.440;6.914;2023-10-31T04:37:43;10.50;99.90
16198;DHT22;8206;51.440;6.914;2023-10-31T04:40:13;10.50;99.90
16198;DHT22;8206;51.440;6.914;2023-10-31T04:42:39;10.50;99.90
16198;DHT22;8206;51.440;6.914;2023-10-31T04:45:07;10.50;99.90
16198;DHT22;8206;51.440;6.914;2023-10-31T04:47:34;10.40;99.90
16198;DHT22;8206;51.440;6.914;2023-10-31T04:50:01;10.50;99.90
16198;DHT22;8206;51.440;6.914;2023-10-31T04:52:27;10.50;99.90
16198;DHT22;8206;51.440;6.914;2023-10-31T04:54:54;10.50;99.90
16198;DHT22;8206;51.440;6.914;2023-10-31T04:57:22;10.50;99.90
16198;DHT22;8206;51.440;6.914;2023-10-31T04:59:49;10.50;99.90
16198;DHT22;8206;51.440;6.914;2023-10-31T05:02:15;10.50;99.90
16198;DHT22;8206;51.440;6.914;2023-10-31T05:04:42;10.60;99.90
16198;DHT22;8206;51.440;6.914;2023-10-31T05:07:09;10.50;99.90
16198;DHT22;8206;51.440;6.914;2023-10-31T05:09:36;10.50;99.90
16198;DHT22;8206;51.440;6.914;2023-10-31T05:12:03;10.50;99.90
16198;DHT22;8206;51.440;6.914;2023-10-31T05:14:31;10.50;99.90
16198;DHT22;8206;51.440;6.914;2023-10-31T05:16:58;10.50;99.90
16198;DHT22;8206;51.440;6.914;2023-10-31T05:19:24;10.50;99.90
16198;DHT22;8206;51.440;6.914;2023-10-31T05:21:51;10.50;99.90
16198;DHT22;8206;51.440;6.914;2023-10-31T05:24:18;10.50;99.90
16198;DHT22;8206;51.440;6.914;2023-10-31T05:26:45;10.50;99.90
16198;DHT22;8206;51.440;6.914;2023-10-31T05:29:12;10.50;99.90
16198;DHT22;8206;51.440;6.914;2023-10-31T05:31:40;10.50;99.90
16198;DHT22;8206;51.440;6.914;2023-10-31T05:34:08;10.50;99.90
16198;DHT22;8206;51.440;6.914;2023-10-31T05:36:35;10.50;99.90
16198;DHT22;8206;51.440;6.914;2023-10-31T05:39:02;10.50;99.90
16198;DHT22;8206;51.440;6.914;2023-10-31T05:41:29;10.50;99.90
16198;DHT22;8206;51.440;6.914;2023-10-31T05:43:57;10.60;99.90
16198;DHT22;8206;51.440;6.914;2023-10-31T05:46:23;10.50;99.90
16198;DHT22;8206;51.440;6.914;2023-10-31T05:48:51;10.50;99.90
16198;DHT22;8206;51.440;6.914;2023-10-31T05:51:19;10.50;99.90
16198;DHT22;8206;51.440;6.914;2023-10-31T05:53:47;10.50;99.90
16198;DHT22;8206;51.440;6.914;2023-10-31T05:56:15;10.50;99.90
16198;DHT22;8206;51.440;6.914;2023-10-31T05:58:42;10.50;99.90
16198;DHT22;8206;51.440;6.914;2023-10-31T06:01:09;10.50;99.90
16198;DHT22;8206;51.440;6.914;2023-10-31T06:03:35;10.50;99.90
16198;DHT22;8206;51.440;6.914;2023-10-31T06:06:04;10.60;99.90
16198;DHT22;8206;51.440;6.914;2023-10-31T06:08:31;10.60;99.90
16198;DHT22;8206;51.440;6.914;2023-10-31T06:10:59;10.60;99.90
16198;DHT22;8206;51.440;6.914;2023-10-31T06:13:26;10.60;99.90
16198;DHT22;8206;51.440;6.914;2023-10-31T06:15:54;10.60;99.90
16198;DHT22;8206;51.440;6.914;2023-10-31T06:18:21;10.60;99.90
16198;DHT22;8206;51.440;6.914;2023-10-31T06:20:48;10.60;99.90
16198;DHT22;8206;51.440;6.914;2023-10-31T06:23:16;10.60;99.90
16198;DHT22;8206;51.440;6.914;2023-10-31T06:25:42;10.50;99.90
16198;DHT22;8206;51.440;6.914;2023-10-31T06:28:09;10.60;99.90
16198;DHT22;8206;51.440;6.914;2023-10-31T06:30:36;10.60;99.90
16198;DHT22;8206;51.440;6.914;2023-10-31T06:33:03;10.60;99.90
16198;DHT22;8206;51.440;6.914;2023-10-31T06:35:29;10.60;99.90
16198;DHT22;8206;51.440;6.914;2023-10-31T06:37:56;10.50;99.90
16198;DHT22;8206;51.440;6.914;2023-10-31T06:40:25;10.60;99.90
16198;DHT22;8206;51.440;6.914;2023-10-31T06:42:52;10.50;99.90
16198;DHT22;8206;51.440;6.914;2023-10-31T06:45:19;10.50;99.90
16198;DHT22;8206;51.440;6.914;2023-10-31T06:47:45;10.50;99.90
16198;DHT22;8206;51.440;6.914;2023-10-31T06:50:12;10.50;99.90
16198;DHT22;8206;51.440;6.914;2023-10-31T06:52:39;10.60;99.90
16198;DHT22;8206;51.440;6.914;2023-10-31T06:55:06;10.50;99.90
16198;DHT22;8206;51.440;6.914;2023-10-31T06:57:34;10.60;99.90
16198;DHT22;8206;51.440;6.914;2023-10-31T07:00:01;10.60;99.90
16198;DHT22;8206;51.440;6.914;2023-10-31T07:02:28;10.60;99.90
16198;DHT22;8206;51.440;6.914;2023-10-31T07:04:55;10.60;99.90
16198;DHT22;8206;51.440;6.914;2023-10-31T07:07:22;10.60;99.90
16198;DHT22;8206;51.440;6.914;2023-10-31T07:09:48;10.60;99.90
16198;DHT22;8206;51.440;6.914;2023-10-31T07:12:15;10.60;99.90
16198;DHT22;8206;51.440;6.914;2023-10-31T07:14:43;10.70;99.90
16198;DHT22;8206;51.440;6.914;2023-10-31T07:17:10;10.70;99.90
16198;DHT22;8206;51.440;6.914;2023-10-31T07:19:37;10.70;99.90
16198;DHT22;8206;51.440;6.914;2023-10-31T07:22:03;10.80;99.90
16198;DHT22;8206;51.440;6.914;2023-10-31T07:24:30;10.80;99.90
16198;DHT22;8206;51.440;6.914;2023-10-31T07:26:57;10.80;99.90
16198;DHT22;8206;51.440;6.914;2023-10-31T07:29:23;10.80;99.90
16198;DHT22;8206;51.440;6.914;2023-10-31T07:31:51;10.80;99.90
16198;DHT22;8206;51.440;6.914;2023-10-31T07:34:18;10.90;99.90
16198;DHT22;8206;51.440;6.914;2023-10-31T07:36:45;10.90;99.90
16198;DHT22;8206;51.440;6.914;2023-10-31T07:39:11;11.00;99.90
16198;DHT22;8206;51.440;6.914;2023-10-31T07:41:39;11.00;99.90
16198;DHT22;8206;51.440;6.914;2023-10-31T07:44:06;11.00;99.90
16198;DHT22;8206;51.440;6.914;2023-10-31T07:46:33;11.10;99.90
16198;DHT22;8206;51.440;6.914;2023-10-31T07:49:01;11.10;99.90
16198;DHT22;8206;51.440;6.914;2023-10-31T07:51:28;11.00;99.90
16198;DHT22;8206;51.440;6.914;2023-10-31T07:53:54;11.00;99.90
16198;DHT22;8206;51.440;6.914;2023-10-31T07:56:23;11.00;99.90
16198;DHT22;8206;51.440;6.914;2023-10-31T07:58:50;11.00;99.90
16198;DHT22;8206;51.440;6.914;2023-10-31T08:01:17;11.00;99.90
16198;DHT22;8206;51.440;6.914;2023-10-31T08:03:45;11.00;99.90
16198;DHT22;8206;51.440;6.914;2023-10-31T08:06:13;11.00;99.90
16198;DHT22;8206;51.440;6.914;2023-10-31T08:08:41;11.10;99.90
16198;DHT22;8206;51.440;6.914;2023-10-31T08:11:08;11.10;99.90
16198;DHT22;8206;51.440;6.914;2023-10-31T08:13:35;11.10;99.90
16198;DHT22;8206;51.440;6.914;2023-10-31T08:16:02;11.20;99.90
16198;DHT22;8206;51.440;6.914;2023-10-31T08:18:29;11.10;99.90
16198;DHT22;8206;51.440;6.914;2023-10-31T08:20:56;11.20;99.90
16198;DHT22;8206;51.440;6.914;2023-10-31T08:23:25;11.20;99.90
16198;DHT22;8206;51.440;6.914;2023-10-31T08:25:51;11.20;99.90
16198;DHT22;8206;51.440;6.914;2023-10-31T08:28:18;11.20;99.90
16198;DHT22;8206;51.440;6.914;2023-10-31T08:30:45;11.20;99.90
16198;DHT22;8206;51.440;6.914;2023-10-31T08:33:12;11.30;99.90
16198;DHT22;8206;51.440;6.914;2023-10-31T08:35:39;11.40;99.90
16198;DHT22;8206;51.440;6.914;2023-10-31T08:38:07;11.40;99.90
16198;DHT22;8206;51.440;6.914;2023-10-31T08:40:35;11.30;99.90
16198;DHT22;8206;51.440;6.914;2023-10-31T08:43:01;11.40;99.90
16198;DHT22;8206;51.440;6.914;2023-10-31T08:45:29;11.50;99.90
16198;DHT22;8206;51.440;6.914;2023-10-31T08:47:56;11.70;99.90
16198;DHT22;8206;51.440;6.914;2023-10-31T08:50:23;11.90;99.90
16198;DHT22;8206;51.440;6.914;2023-10-31T08:52:50;12.20;99.90
16198;DHT22;8206;51.440;6.914;2023-10-31T08:55:17;12.40;99.90
16198;DHT22;8206;51.440;6.914;2023-10-31T08:57:45;12.50;95.80
16198;DHT22;8206;51.440;6.914;2023-10-31T09:00:12;12.20;99.90
16198;DHT22;8206;51.440;6.914;2023-10-31T09:02:39;12.10;99.90
16198;DHT22;8206;51.440;6.914;2023-10-31T09:05:06;12.00;99.90
16198;DHT22;8206;51.440;6.914;2023-10-31T09:07:33;11.90;99.90
16198;DHT22;8206;51.440;6.914;2023-10-31T09:10:00;11.80;99.90
16198;DHT22;8206;51.440;6.914;2023-10-31T09:12:27;11.90;99.90
16198;DHT22;8206;51.440;6.914;2023-10-31T09:14:55;11.90;99.90
16198;DHT22;8206;51.440;6.914;2023-10-31T09:17:22;12.10;99.90
16198;DHT22;8206;51.440;6.914;2023-10-31T09:19:48;12.00;99.90
16198;DHT22;8206;51.440;6.914;2023-10-31T09:22:15;12.10;99.90
16198;DHT22;8206;51.440;6.914;2023-10-31T09:24:42;12.20;99.90
16198;DHT22;8206;51.440;6.914;2023-10-31T09:27:09;12.30;99.90
16198;DHT22;8206;51.440;6.914;2023-10-31T09:29:36;12.40;99.90
16198;DHT22;8206;51.440;6.914;2023-10-31T09:32:06;12.50;99.90
16198;DHT22;8206;51.440;6.914;2023-10-31T09:34:32;12.60;99.90
16198;DHT22;8206;51.440;6.914;2023-10-31T09:36:59;12.70;99.90
16198;DHT22;8206;51.440;6.914;2023-10-31T09:39:26;12.60;99.90
16198;DHT22;8206;51.440;6.914;2023-10-31T09:41:53;12.40;99.90
16198;DHT22;8206;51.440;6.914;2023-10-31T09:44:20;12.50;99.90
16198;DHT22;8206;51.440;6.914;2023-10-31T09:46:47;12.60;99.90
16198;DHT22;8206;51.440;6.914;2023-10-31T09:49:15;12.80;99.90
16198;DHT22;8206;51.440;6.914;2023-10-31T09:51:42;12.90;99.90
16198;DHT22;8206;51.440;6.914;2023-10-31T09:54:09;12.90;99.90
16198;DHT22;8206;51.440;6.914;2023-10-31T09:56:38;13.10;99.90
16198;DHT22;8206;51.440;6.914;2023-10-31T09:59:05;13.20;99.90
16198;DHT22;8206;51.440;6.914;2023-10-31T10:01:32;13.00;99.90
16198;DHT22;8206;51.440;6.914;2023-10-31T10:03:58;13.10;99.90
16198;DHT22;8206;51.440;6.914;2023-10-31T10:06:27;13.00;99.90
16198;DHT22;8206;51.440;6.914;2023-10-31T10:08:55;13.00;99.90
16198;DHT22;8206;51.440;6.914;2023-10-31T10:11:22;12.90;99.90
16198;DHT22;8206;51.440;6.914;2023-10-31T10:13:49;12.90;99.90
16198;DHT22;8206;51.440;6.914;2023-10-31T10:16:28;12.80;99.90
16198;DHT22;8206;51.440;6.914;2023-10-31T10:18:55;12.70;99.90
16198;DHT22;8206;51.440;6.914;2023-10-31T10:21:22;12.80;99.90
16198;DHT22;8206;51.440;6.914;2023-10-31T10:23:51;12.70;99.90
16198;DHT22;8206;51.440;6.914;2023-10-31T10:26:18;12.60;99.90
16198;DHT22;8206;51.440;6.914;2023-10-31T10:28:46;12.50;99.90
16198;DHT22;8206;51.440;6.914;2023-10-31T10:31:14;12.60;99.90
16198;DHT22;8206;51.440;6.914;2023-10-31T10:33:42;12.50;99.90
16198;DHT22;8206;51.440;6.914;2023-10-31T10:36:10;12.60;99.90
16198;DHT22;8206;51.440;6.914;2023-10-31T10:38:37;12.70;99.90
16198;DHT22;8206;51.440;6.914;2023-10-31T10:41:09;12.80;99.90
16198;DHT22;8206;51.440;6.914;2023-10-31T10:43:37;12.80;99.90
16198;DHT22;8206;51.440;6.914;2023-10-31T10:46:05;12.80;99.90
16198;DHT22;8206;51.440;6.914;2023-10-31T10:48:35;12.90;99.90
16198;DHT22;8206;51.440;6.914;2023-10-31T10:51:05;13.00;99.90
16198;DHT22;8206;51.440;6.914;2023-10-31T10:53:37;13.00;99.90
16198;DHT22;8206;51.440;6.914;2023-10-31T10:56:16;12.90;99.90
16198;DHT22;8206;51.440;6.914;2023-10-31T10:58:52;13.00;99.90
16198;DHT22;8206;51.440;6.914;2023-10-31T11:01:22;12.90;99.90
16198;DHT22;8206;51.440;6.914;2023-10-31T11:03:50;13.00;99.90
16198;DHT22;8206;51.440;6.914;2023-10-31T11:06:19;13.10;99.90
16198;DHT22;8206;51.440;6.914;2023-10-31T11:08:46;13.10;99.90
16198;DHT22;8206;51.440;6.914;2023-10-31T11:11:15;13.10;99.90
16198;DHT22;8206;51.440;6.914;2023-10-31T11:13:43;13.20;99.90
16198;DHT22;8206;51.440;6.914;2023-10-31T11:16:15;13.20;99.90
16198;DHT22;8206;51.440;6.914;2023-10-31T11:18:44;13.20;99.90
16198;DHT22;8206;51.440;6.914;2023-10-31T11:21:11;13.20;1.00
16198;DHT22;8206;51.440;6.914;2023-10-31T11:23:37;13.10;1.00
16198;DHT22;8206;51.440;6.914;2023-10-31T11:26:07;13.10;1.00
16198;DHT22;8206;51.440;6.914;2023-10-31T11:28:36;13.00;1.00
16198;DHT22;8206;51.440;6.914;2023-10-31T11:31:03;13.00;1.00
16198;DHT22;8206;51.440;6.914;2023-10-31T11:33:30;13.10;1.00
16198;DHT22;8206;51.440;6.914;2023-10-31T11:36:00;13.20;1.00
16198;DHT22;8206;51.440;6.914;2023-10-31T11:38:35;13.30;1.00
16198;DHT22;8206;51.440;6.914;2023-10-31T11:41:02;13.40;1.00
16198;DHT22;8206;51.440;6.914;2023-10-31T11:43:53;13.50;1.00
16198;DHT22;8206;51.440;6.914;2023-10-31T11:46:20;13.50;1.00
16198;DHT22;8206;51.440;6.914;2023-10-31T11:48:51;13.50;1.00
16198;DHT22;8206;51.440;6.914;2023-10-31T11:51:18;13.70;1.00
16198;DHT22;8206;51.440;6.914;2023-10-31T11:53:45;13.80;1.00
16198;DHT22;8206;51.440;6.914;2023-10-31T11:56:12;13.90;1.00
16198;DHT22;8206;51.440;6.914;2023-10-31T11:58:40;13.90;1.00
16198;DHT22;8206;51.440;6.914;2023-10-31T12:01:08;14.00;1.00
16198;DHT22;8206;51.440;6.914;2023-10-31T12:03:40;14.10;1.00
16198;DHT22;8206;51.440;6.914;2023-10-31T12:06:07;14.20;1.00
16198;DHT22;8206;51.440;6.914;2023-10-31T12:08:36;14.20;1.00
16198;DHT22;8206;51.440;6.914;2023-10-31T12:11:04;14.20;1.00
16198;DHT22;8206;51.440;6.914;2023-10-31T12:13:32;14.20;1.00
16198;DHT22;8206;51.440;6.914;2023-10-31T12:16:00;14.20;1.00
16198;DHT22;8206;51.440;6.914;2023-10-31T12:18:27;14.20;1.00
16198;DHT22;8206;51.440;6.914;2023-10-31T12:20:55;14.10;1.00
16198;DHT22;8206;51.440;6.914;2023-10-31T12:23:22;14.00;1.00
16198;DHT22;8206;51.440;6.914;2023-10-31T12:25:49;13.90;1.00
16198;DHT22;8206;51.440;6.914;2023-10-31T12:28:19;13.90;1.00
16198;DHT22;8206;51.440;6.914;2023-10-31T12:30:47;13.80;1.00
16198;DHT22;8206;51.440;6.914;2023-10-31T12:33:15;13.80;1.00
16198;DHT22;8206;51.440;6.914;2023-10-31T12:35:42;13.90;1.00
16198;DHT22;8206;51.440;6.914;2023-10-31T12:38:11;13.90;1.00
16198;DHT22;8206;51.440;6.914;2023-10-31T12:40:38;14.10;1.00
16198;DHT22;8206;51.440;6.914;2023-10-31T12:43:05;14.10;1.00
16198;DHT22;8206;51.440;6.914;2023-10-31T12:45:32;14.00;1.00
16198;DHT22;8206;51.440;6.914;2023-10-31T12:48:03;14.00;1.00
16198;DHT22;8206;51.440;6.914;2023-10-31T12:50:32;14.10;1.00
16198;DHT22;8206;51.440;6.914;2023-10-31T12:53:00;14.10;1.00
16198;DHT22;8206;51.440;6.914;2023-10-31T12:55:29;14.10;1.00
16198;DHT22;8206;51.440;6.914;2023-10-31T12:57:57;14.10;1.00
16198;DHT22;8206;51.440;6.914;2023-10-31T13:00:31;14.00;1.00
16198;DHT22;8206;51.440;6.914;2023-10-31T13:03:00;14.10;1.00
16198;DHT22;8206;51.440;6.914;2023-10-31T13:05:28;14.00;1.00
16198;DHT22;8206;51.440;6.914;2023-10-31T13:07:57;13.90;1.00
16198;DHT22;8206;51.440;6.914;2023-10-31T13:10:26;13.80;1.00
16198;DHT22;8206;51.440;6.914;2023-10-31T13:12:54;13.70;1.00
16198;DHT22;8206;51.440;6.914;2023-10-31T13:15:21;13.70;1.00
16198;DHT22;8206;51.440;6.914;2023-10-31T13:17:49;13.70;1.00
16198;DHT22;8206;51.440;6.914;2023-10-31T13:20:18;13.70;1.00
16198;DHT22;8206;51.440;6.914;2023-10-31T13:22:45;13.80;1.00
16198;DHT22;8206;51.440;6.914;2023-10-31T13:25:14;13.80;1.00
16198;DHT22;8206;51.440;6.914;2023-10-31T13:27:42;13.80;1.00
16198;DHT22;8206;51.440;6.914;2023-10-31T13:30:10;13.90;1.00
16198;DHT22;8206;51.440;6.914;2023-10-31T13:32:38;14.00;1.00
16198;DHT22;8206;51.440;6.914;2023-10-31T13:35:05;14.00;1.00
16198;DHT22;8206;51.440;6.914;2023-10-31T13:37:31;14.20;1.00
16198;DHT22;8206;51.440;6.914;2023-10-31T13:39:59;14.10;1.00
16198;DHT22;8206;51.440;6.914;2023-10-31T13:42:27;13.90;1.00
16198;DHT22;8206;51.440;6.914;2023-10-31T13:44:54;13.70;1.00
16198;DHT22;8206;51.440;6.914;2023-10-31T13:47:21;13.60;1.00
16198;DHT22;8206;51.440;6.914;2023-10-31T13:49:48;13.50;1.00
16198;DHT22;8206;51.440;6.914;2023-10-31T13:52:15;13.50;1.00
16198;DHT22;8206;51.440;6.914;2023-10-31T13:54:41;13.40;1.00
16198;DHT22;8206;51.440;6.914;2023-10-31T13:57:09;13.60;1.00
16198;DHT22;8206;51.440;6.914;2023-10-31T13:59:37;13.60;1.00
16198;DHT22;8206;51.440;6.914;2023-10-31T14:02:03;13.70;1.00
16198;DHT22;8206;51.440;6.914;2023-10-31T14:04:30;13.60;1.00
16198;DHT22;8206;51.440;6.914;2023-10-31T14:06:57;13.60;1.00
16198;DHT22;8206;51.440;6.914;2023-10-31T14:09:24;13.70;1.00
16198;DHT22;8206;51.440;6.914;2023-10-31T14:11:51;13.70;1.00
16198;DHT22;8206;51.440;6.914;2023-10-31T14:14:17;13.70;1.00
16198;DHT22;8206;51.440;6.914;2023-10-31T14:16:46;13.80;1.00
16198;DHT22;8206;51.440;6.914;2023-10-31T14:19:14;13.80;1.00
16198;DHT22;8206;51.440;6.914;2023-10-31T14:21:43;13.90;1.00
16198;DHT22;8206;51.440;6.914;2023-10-31T14:24:10;13.90;1.00
16198;DHT22;8206;51.440;6.914;2023-10-31T14:26:37;13.90;1.00
16198;DHT22;8206;51.440;6.914;2023-10-31T14:29:05;13.90;1.00
16198;DHT22;8206;51.440;6.914;2023-10-31T14:31:37;13.90;1.00
16198;DHT22;8206;51.440;6.914;2023-10-31T14:34:05;14.00;1.00
16198;DHT22;8206;51.440;6.914;2023-10-31T14:36:32;13.90;1.00
16198;DHT22;8206;51.440;6.914;2023-10-31T14:38:58;13.60;1.00
16198;DHT22;8206;51.440;6.914;2023-10-31T14:41:25;13.50;1.00
16198;DHT22;8206;51.440;6.914;2023-10-31T14:43:52;13.30;1.00
16198;DHT22;8206;51.440;6.914;2023-10-31T14:46:19;13.30;1.00
16198;DHT22;8206;51.440;6.914;2023-10-31T14:48:46;13.30;1.00
16198;DHT22;8206;51.440;6.914;2023-10-31T14:51:14;13.30;1.00
16198;DHT22;8206;51.440;6.914;2023-10-31T14:53:40;13.30;1.00
16198;DHT22;8206;51.440;6.914;2023-10-31T14:56:07;13.30;1.00
16198;DHT22;8206;51.440;6.914;2023-10-31T14:58:34;13.30;1.00
16198;DHT22;8206;51.440;6.914;2023-10-31T15:01:01;13.20;1.00
16198;DHT22;8206;51.440;6.914;2023-10-31T15:03:29;13.10;1.00
16198;DHT22;8206;51.440;6.914;2023-10-31T15:05:57;13.10;1.00
16198;DHT22;8206;51.440;6.914;2023-10-31T15:08:25;13.10;1.00
16198;DHT22;8206;51.440;6.914;2023-10-31T15:10:52;13.10;1.00
16198;DHT22;8206;51.440;6.914;2023-10-31T15:13:20;13.20;1.00
16198;DHT22;8206;51.440;6.914;2023-10-31T15:15:48;13.10;1.00
16198;DHT22;8206;51.440;6.914;2023-10-31T15:18:14;13.00;1.00
16198;DHT22;8206;51.440;6.914;2023-10-31T15:20:41;12.90;1.00
16198;DHT22;8206;51.440;6.914;2023-10-31T15:23:08;12.80;1.00
16198;DHT22;8206;51.440;6.914;2023-10-31T15:25:36;12.70;1.00
16198;DHT22;8206;51.440;6.914;2023-10-31T15:28:03;12.70;1.00
16198;DHT22;8206;51.440;6.914;2023-10-31T15:30:30;12.60;1.00
16198;DHT22;8206;51.440;6.914;2023-10-31T15:32:57;12.60;1.00
16198;DHT22;8206;51.440;6.914;2023-10-31T15:35:24;12.60;1.00
16198;DHT22;8206;51.440;6.914;2023-10-31T15:37:51;12.70;1.00
16198;DHT22;8206;51.440;6.914;2023-10-31T15:40:18;12.60;1.00
16198;DHT22;8206;51.440;6.914;2023-10-31T15:42:46;12.60;1.00
16198;DHT22;8206;51.440;6.914;2023-10-31T15:45:13;12.50;1.00
16198;DHT22;8206;51.440;6.914;2023-10-31T15:47:39;12.50;1.00
16198;DHT22;8206;51.440;6.914;2023-10-31T15:50:07;12.50;1.00